Time;durP1;ratioP1;P1;durP2;ratioP2;P2;SDS_P1;SDS_P2;PMS_P1;PMS_P2;Temp;Humidity;BMP_temperature;BMP_pressure;BME280_temperature;BME280_humidity;BME280_pressure;Samples;Min_cycle;Max_cycle;Signal;HPM_P1;HPM_P2
2021/09/24 00:00:17;;;;;;;;;8.00;7.00;;;;;;;;5094877;27;46175;-80
2021/09/24 00:02:42;;;;;;;;;9.75;8.25;;;;;;;;5088543;27;45727;-80
2021/09/24 00:05:08;;;;;;;;;7.67;5.00;;;;;;;;5092579;27;45641;-80
2021/09/24 00:07:33;;;;;;;;;11.00;7.75;;;;;;;;5094685;27;45739;-80
2021/09/24 00:09:58;;;;;;;;;5.67;5.67;;;;;;;;5094733;27;46077;-80
2021/09/24 00:12:24;;;;;;;;;8.00;6.67;;;;;;;;5095457;27;45450;-80
2021/09/24 00:14:49;;;;;;;;;7.50;6.00;;;;;;;;5091890;27;45597;-80
2021/09/24 00:17:14;;;;;;;;;7.67;5.00;;;;;;;;5091044;27;45623;-80
2021/09/24 00:19:40;;;;;;;;;6.00;6.00;;;;;;;;5096814;27;45391;-80
2021/09/24 00:22:05;;;;;;;;;5.00;5.00;;;;;;;;5093312;27;45673;-80
2021/09/24 00:24:30;;;;;;;;;9.33;6.00;;;;;;;;5096336;27;45556;-80
2021/09/24 00:26:55;;;;;;;;;9.67;9.33;;;;;;;;5094122;27;45564;-80
2021/09/24 00:29:21;;;;;;;;;7.00;6.00;;;;;;;;5089769;27;45402;-80
2021/09/24 00:31:46;;;;;;;;;15.67;9.67;;;;;;;;5098239;27;45434;-80
2021/09/24 00:34:11;;;;;;;;;15.67;10.67;;;;;;;;5095769;27;45544;-80
2021/09/24 00:36:36;;;;;;;;;14.33;12.33;;;;;;;;5096454;27;45476;-80
2021/09/24 00:39:02;;;;;;;;;17.50;10.75;;;;;;;;5096424;27;46215;-80
2021/09/24 00:41:27;;;;;;;;;18.25;13.00;;;;;;;;5090062;27;45467;-80
2021/09/24 00:43:52;;;;;;;;;15.00;12.67;;;;;;;;5095589;27;45545;-80
2021/09/24 00:46:17;;;;;;;;;14.33;11.00;;;;;;;;5091991;27;45521;-80
2021/09/24 00:48:43;;;;;;;;;15.33;12.00;;;;;;;;5092544;27;48603;-80
2021/09/24 00:51:08;;;;;;;;;13.33;11.67;;;;;;;;5092109;27;45815;-80
2021/09/24 00:53:33;;;;;;;;;17.50;13.50;;;;;;;;5090407;27;45508;-80
2021/09/24 00:55:59;;;;;;;;;11.25;10.50;;;;;;;;5090267;27;45366;-80
2021/09/24 00:58:24;;;;;;;;;12.75;11.00;;;;;;;;5095702;27;45437;-80
2021/09/24 01:00:49;;;;;;;;;13.00;11.25;;;;;;;;5095649;27;45572;-80
2021/09/24 01:03:14;;;;;;;;;13.33;12.67;;;;;;;;5095637;27;45536;-80
2021/09/24 01:05:40;;;;;;;;;15.33;11.33;;;;;;;;5094535;27;45454;-80
2021/09/24 01:08:05;;;;;;;;;13.25;9.25;;;;;;;;5093269;27;45508;-80
2021/09/24 01:10:30;;;;;;;;;11.25;11.00;;;;;;;;5095396;27;45519;-80
2021/09/24 01:12:56;;;;;;;;;12.33;9.67;;;;;;;;5095089;27;45566;-80
2021/09/24 01:15:21;;;;;;;;;13.75;11.00;;;;;;;;5094268;27;45615;-80
2021/09/24 01:17:50;;;;;;;;;18.75;10.75;;;;;;;;5095245;27;45374;-80
2021/09/24 01:20:17;;;;;;;;;11.00;11.00;;;;;;;;5091237;27;46237;-80
2021/09/24 01:22:42;;;;;;;;;13.00;11.00;;;;;;;;5095455;27;45348;-80
2021/09/24 01:25:08;;;;;;;;;19.75;12.75;;;;;;;;5095281;27;45562;-80
2021/09/24 01:27:34;;;;;;;;;12.75;10.50;;;;;;;;5093568;27;45577;-80
2021/09/24 01:29:59;;;;;;;;;7.50;7.00;;;;;;;;5095869;27;45379;-80
2021/09/24 01:32:25;;;;;;;;;12.75;10.75;;;;;;;;5088258;27;45435;-80
2021/09/24 01:34:50;;;;;;;;;15.75;11.00;;;;;;;;5095324;27;45526;-80
2021/09/24 01:37:15;;;;;;;;;16.50;14.25;;;;;;;;5090521;27;45843;-80
2021/09/24 01:39:41;;;;;;;;;16.75;12.75;;;;;;;;5093118;27;45400;-80
2021/09/24 01:42:06;;;;;;;;;19.00;14.33;;;;;;;;5106933;27;48326;-80
2021/09/24 01:44:31;;;;;;;;;15.25;11.75;;;;;;;;5094809;27;45598;-80
2021/09/24 01:46:57;;;;;;;;;12.50;11.25;;;;;;;;5094248;27;46150;-80
2021/09/24 01:49:22;;;;;;;;;13.50;10.50;;;;;;;;5093440;27;45557;-81
2021/09/24 01:51:48;;;;;;;;;14.00;12.50;;;;;;;;5089595;27;45664;-80
2021/09/24 01:54:15;;;;;;;;;12.00;12.00;;;;;;;;5095038;27;45805;-80
2021/09/24 01:56:41;;;;;;;;;13.00;11.00;;;;;;;;5095447;27;45634;-80
2021/09/24 01:59:06;;;;;;;;;12.25;9.25;;;;;;;;5085497;27;45756;-80
2021/09/24 02:01:31;;;;;;;;;12.67;10.33;;;;;;;;5100569;27;45478;-80
2021/09/24 02:03:56;;;;;;;;;13.50;11.00;;;;;;;;5096829;27;45578;-80
2021/09/24 02:06:22;;;;;;;;;13.33;11.00;;;;;;;;5097514;27;46199;-80
2021/09/24 02:08:47;;;;;;;;;13.67;11.33;;;;;;;;5095292;27;45592;-80
2021/09/24 02:11:12;;;;;;;;;17.67;11.00;;;;;;;;5092239;27;45403;-80
2021/09/24 02:13:38;;;;;;;;;11.50;9.75;;;;;;;;5098981;27;45803;-80
2021/09/24 02:16:04;;;;;;;;;13.75;9.50;;;;;;;;5098695;27;45436;-80
2021/09/24 02:18:29;;;;;;;;;14.00;12.00;;;;;;;;5096592;27;45482;-80
2021/09/24 02:20:54;;;;;;;;;9.00;9.00;;;;;;;;5097956;27;45529;-80
2021/09/24 02:23:20;;;;;;;;;13.67;10.67;;;;;;;;5093041;27;45577;-80
2021/09/24 02:25:45;;;;;;;;;11.67;10.00;;;;;;;;5099101;27;46367;-80
2021/09/24 02:28:10;;;;;;;;;13.67;10.33;;;;;;;;5096521;27;45416;-80
2021/09/24 02:30:35;;;;;;;;;15.67;12.00;;;;;;;;5098516;27;45663;-80
2021/09/24 02:33:00;;;;;;;;;14.67;10.00;;;;;;;;5095269;27;45477;-80
2021/09/24 02:35:26;;;;;;;;;9.00;9.00;;;;;;;;5092671;27;46792;-80
2021/09/24 02:37:51;;;;;;;;;9.00;8.00;;;;;;;;5098612;27;45407;-81
2021/09/24 02:40:19;;;;;;;;;11.00;8.00;;;;;;;;5096796;27;45376;-80
2021/09/24 02:42:44;;;;;;;;;9.00;7.00;;;;;;;;5098131;27;45618;-80
2021/09/24 02:45:09;;;;;;;;;8.67;7.33;;;;;;;;5098900;27;46070;-80
2021/09/24 02:47:35;;;;;;;;;12.75;9.00;;;;;;;;5093128;27;45473;-80
2021/09/24 02:50:00;;;;;;;;;10.25;8.75;;;;;;;;5094478;27;45583;-80
2021/09/24 02:52:25;;;;;;;;;10.67;9.00;;;;;;;;5092744;27;45591;-80
2021/09/24 02:54:50;;;;;;;;;9.00;9.00;;;;;;;;5097082;27;47466;-80
2021/09/24 02:57:15;;;;;;;;;10.33;8.00;;;;;;;;5102358;27;45592;-80
2021/09/24 02:59:41;;;;;;;;;11.67;9.67;;;;;;;;5096550;27;45308;-80
2021/09/24 03:02:06;;;;;;;;;13.67;9.00;;;;;;;;5094666;27;45667;-80
2021/09/24 03:04:31;;;;;;;;;11.50;8.50;;;;;;;;5098052;27;47592;-80
2021/09/24 03:06:57;;;;;;;;;7.00;7.00;;;;;;;;5095375;27;45564;-80
2021/09/24 03:09:22;;;;;;;;;12.00;8.00;;;;;;;;5095734;27;45560;-80
2021/09/24 03:11:47;;;;;;;;;12.67;9.00;;;;;;;;5095094;27;45608;-80
2021/09/24 03:14:12;;;;;;;;;11.67;7.00;;;;;;;;5092635;27;48136;-80
2021/09/24 03:16:37;;;;;;;;;8.00;6.33;;;;;;;;5096633;27;45441;-80
2021/09/24 03:19:04;;;;;;;;;9.50;7.75;;;;;;;;5098559;27;45532;-80
2021/09/24 03:21:29;;;;;;;;;8.25;8.00;;;;;;;;5096591;27;45417;-80
2021/09/24 03:23:54;;;;;;;;;14.25;10.75;;;;;;;;5106595;27;46540;-80
2021/09/24 03:26:20;;;;;;;;;8.67;7.33;;;;;;;;5091055;27;45462;-80
2021/09/24 03:28:45;;;;;;;;;9.00;7.75;;;;;;;;5100231;27;45443;-80
2021/09/24 03:31:10;;;;;;;;;12.67;10.33;;;;;;;;5104466;27;45626;-80
2021/09/24 03:33:35;;;;;;;;;9.33;9.00;;;;;;;;5095458;27;46958;-80
2021/09/24 03:36:01;;;;;;;;;13.33;10.00;;;;;;;;5094841;27;45594;-80
2021/09/24 03:38:26;;;;;;;;;10.25;8.00;;;;;;;;5107144;27;48994;-80
2021/09/24 03:40:52;;;;;;;;;10.00;7.00;;;;;;;;5095606;27;45465;-80
2021/09/24 03:43:17;;;;;;;;;9.25;7.00;;;;;;;;5097385;27;46404;-80
2021/09/24 03:45:42;;;;;;;;;18.33;11.33;;;;;;;;5095470;27;45492;-80
2021/09/24 03:48:07;;;;;;;;;11.33;10.00;;;;;;;;5094788;27;45586;-80
2021/09/24 03:50:33;;;;;;;;;11.33;8.33;;;;;;;;5094458;27;45520;-80
2021/09/24 03:52:58;;;;;;;;;17.00;8.33;;;;;;;;5093650;27;48392;-80
2021/09/24 03:55:23;;;;;;;;;7.50;7.50;;;;;;;;5096344;27;45714;-80
2021/09/24 03:57:48;;;;;;;;;11.00;9.33;;;;;;;;5096851;27;45548;-80
2021/09/24 04:00:14;;;;;;;;;9.33;8.00;;;;;;;;5107108;27;45508;-80
2021/09/24 04:02:40;;;;;;;;;9.50;8.25;;;;;;;;5095939;27;46697;-80
2021/09/24 04:05:06;;;;;;;;;8.75;6.75;;;;;;;;5093273;27;45532;-80
2021/09/24 04:07:31;;;;;;;;;8.50;7.50;;;;;;;;5093445;27;45584;-80
2021/09/24 04:09:56;;;;;;;;;9.33;6.00;;;;;;;;5094862;27;45571;-80
2021/09/24 04:12:21;;;;;;;;;13.33;8.33;;;;;;;;5094810;27;45602;-80
2021/09/24 04:14:46;;;;;;;;;12.33;9.00;;;;;;;;5093984;27;45445;-80
2021/09/24 04:17:12;;;;;;;;;12.33;8.00;;;;;;;;5091083;27;45637;-80
2021/09/24 04:19:37;;;;;;;;;11.33;9.00;;;;;;;;5096080;27;45578;-80
2021/09/24 04:22:02;;;;;;;;;13.33;8.33;;;;;;;;5095629;27;45485;-80
2021/09/24 04:24:28;;;;;;;;;14.50;10.25;;;;;;;;5092564;27;45502;-80
2021/09/24 04:26:53;;;;;;;;;14.67;7.67;;;;;;;;5091413;27;45672;-80
2021/09/24 04:29:18;;;;;;;;;12.00;10.33;;;;;;;;5090523;27;45636;-80
2021/09/24 04:31:43;;;;;;;;;14.67;10.33;;;;;;;;5097786;27;46346;-81
2021/09/24 04:34:09;;;;;;;;;11.00;8.25;;;;;;;;5094782;27;45399;-80
2021/09/24 04:36:35;;;;;;;;;11.50;7.50;;;;;;;;5095084;27;45717;-80
2021/09/24 04:39:02;;;;;;;;;10.75;10.75;;;;;;;;5093912;27;45478;-80
2021/09/24 04:41:27;;;;;;;;;10.00;8.75;;;;;;;;5091797;27;48335;-80
2021/09/24 04:43:52;;;;;;;;;9.50;9.25;;;;;;;;5092557;27;45805;-80
2021/09/24 04:46:18;;;;;;;;;11.33;9.67;;;;;;;;5095260;27;45458;-80
2021/09/24 04:48:43;;;;;;;;;11.33;9.00;;;;;;;;5098307;27;45402;-80
2021/09/24 04:51:08;;;;;;;;;16.00;10.33;;;;;;;;5105481;27;47195;-80
2021/09/24 04:53:33;;;;;;;;;13.00;8.75;;;;;;;;5090363;27;45466;-80
2021/09/24 04:55:59;;;;;;;;;12.00;7.33;;;;;;;;5098012;27;45321;-80
2021/09/24 04:58:24;;;;;;;;;9.67;9.00;;;;;;;;5095636;27;45432;-81
2021/09/24 05:00:50;;;;;;;;;14.50;7.00;;;;;;;;5095456;27;46293;-80
2021/09/24 05:03:15;;;;;;;;;13.75;11.00;;;;;;;;5094509;27;45917;-81
2021/09/24 05:05:40;;;;;;;;;10.25;9.75;;;;;;;;5092796;27;45393;-80
2021/09/24 05:08:06;;;;;;;;;11.67;9.67;;;;;;;;5093419;27;45883;-80
2021/09/24 05:10:31;;;;;;;;;13.33;8.33;;;;;;;;5092971;27;46594;-80
2021/09/24 05:12:56;;;;;;;;;10.67;8.67;;;;;;;;5091919;27;45416;-80
2021/09/24 05:15:21;;;;;;;;;12.00;9.00;;;;;;;;5092186;27;45571;-80
2021/09/24 05:17:46;;;;;;;;;8.33;8.33;;;;;;;;5093570;27;45469;-80
2021/09/24 05:20:12;;;;;;;;;14.33;9.00;;;;;;;;5089811;27;45518;-80
2021/09/24 05:22:37;;;;;;;;;17.50;12.50;;;;;;;;5095608;27;45735;-80
2021/09/24 05:25:04;;;;;;;;;8.00;7.33;;;;;;;;5092158;27;45558;-79
2021/09/24 05:27:29;;;;;;;;;12.25;9.75;;;;;;;;5094928;27;45395;-80
2021/09/24 05:29:54;;;;;;;;;12.00;9.33;;;;;;;;5091666;27;45647;-80
2021/09/24 05:32:20;;;;;;;;;13.33;9.67;;;;;;;;5099437;27;45619;-80
2021/09/24 05:34:45;;;;;;;;;17.00;13.00;;;;;;;;5102684;27;45607;-80
2021/09/24 05:37:10;;;;;;;;;13.33;10.67;;;;;;;;5097444;27;45569;-80
2021/09/24 05:39:36;;;;;;;;;15.75;11.00;;;;;;;;5098329;27;46069;-80
2021/09/24 05:42:01;;;;;;;;;7.75;7.00;;;;;;;;5097773;27;45695;-81
2021/09/24 05:44:27;;;;;;;;;14.50;10.75;;;;;;;;5094534;27;45501;-80
2021/09/24 05:46:52;;;;;;;;;10.33;9.00;;;;;;;;5094922;27;47355;-80
2021/09/24 05:49:17;;;;;;;;;10.67;8.00;;;;;;;;5096496;27;48224;-80
2021/09/24 05:51:42;;;;;;;;;15.25;11.25;;;;;;;;5097310;27;45394;-80
2021/09/24 05:54:08;;;;;;;;;11.00;9.50;;;;;;;;5097096;27;45631;-80
2021/09/24 05:56:33;;;;;;;;;11.25;8.75;;;;;;;;5094570;27;45602;-80
2021/09/24 05:58:59;;;;;;;;;16.75;12.25;;;;;;;;5099185;27;45980;-80
2021/09/24 06:01:24;;;;;;;;;11.67;11.00;;;;;;;;5097928;27;45480;-80
2021/09/24 06:03:50;;;;;;;;;13.33;11.00;;;;;;;;5100423;27;45550;-80
2021/09/24 06:06:15;;;;;;;;;12.75;11.25;;;;;;;;5096391;27;45544;-80
2021/09/24 06:08:41;;;;;;;;;14.00;11.67;;;;;;;;5094946;27;46209;-80
2021/09/24 06:11:06;;;;;;;;;13.50;10.25;;;;;;;;5095756;27;45935;-80
2021/09/24 06:13:32;;;;;;;;;11.33;10.00;;;;;;;;5096786;27;45572;-80
2021/09/24 06:15:57;;;;;;;;;18.00;12.67;;;;;;;;5096273;27;45351;-80
2021/09/24 06:18:22;;;;;;;;;19.67;12.33;;;;;;;;5094419;27;45897;-80
2021/09/24 06:20:47;;;;;;;;;14.50;12.50;;;;;;;;5096981;27;45514;-80
2021/09/24 06:23:13;;;;;;;;;14.67;14.00;;;;;;;;5093661;27;45537;-85
2021/09/24 06:25:38;;;;;;;;;15.75;12.00;;;;;;;;5099153;27;45976;-86
2021/09/24 06:28:03;;;;;;;;;13.00;11.00;;;;;;;;5095762;27;46136;-86
2021/09/24 06:30:29;;;;;;;;;14.67;13.33;;;;;;;;5102260;27;45509;-84
2021/09/24 06:32:54;;;;;;;;;18.75;12.50;;;;;;;;5095774;27;45446;-80
2021/09/24 06:35:20;;;;;;;;;14.25;10.75;;;;;;;;5092195;27;45578;-80
2021/09/24 06:37:45;;;;;;;;;14.75;11.00;;;;;;;;5096863;27;46177;-80
2021/09/24 06:40:11;;;;;;;;;17.50;14.00;;;;;;;;5094952;27;45367;-80
2021/09/24 06:42:40;;;;;;;;;14.25;12.25;;;;;;;;5096367;27;45401;-80
2021/09/24 06:45:07;;;;;;;;;15.25;14.00;;;;;;;;5089204;27;45512;-81
2021/09/24 06:47:32;;;;;;;;;15.00;10.75;;;;;;;;5096979;27;45427;-80
2021/09/24 06:49:57;;;;;;;;;16.33;10.67;;;;;;;;5096796;27;45473;-81
2021/09/24 06:52:22;;;;;;;;;17.00;11.33;;;;;;;;5098016;27;45569;-80
2021/09/24 06:54:48;;;;;;;;;15.75;11.75;;;;;;;;5092598;27;45525;-79
2021/09/24 06:57:14;;;;;;;;;12.75;11.50;;;;;;;;5076339;27;46342;-79
2021/09/24 06:59:39;;;;;;;;;12.33;12.33;;;;;;;;5079945;27;45798;-79
2021/09/24 07:02:04;;;;;;;;;13.67;10.33;;;;;;;;5087131;27;57942;-79
2021/09/24 07:04:30;;;;;;;;;16.75;11.50;;;;;;;;5092669;27;45639;-79
2021/09/24 07:06:55;;;;;;;;;12.50;10.75;;;;;;;;5086498;27;46318;-80
2021/09/24 07:09:20;;;;;;;;;15.67;10.67;;;;;;;;5088239;27;45628;-79
2021/09/24 07:11:48;;;;;;;;;12.67;11.33;;;;;;;;5089077;27;45569;-79
2021/09/24 07:14:14;;;;;;;;;20.50;12.50;;;;;;;;5084330;27;45622;-79
2021/09/24 07:16:40;;;;;;;;;16.75;10.75;;;;;;;;5083246;27;45459;-78
2021/09/24 07:19:05;;;;;;;;;11.33;9.33;;;;;;;;5084963;27;45527;-81
2021/09/24 07:21:31;;;;;;;;;13.25;11.25;;;;;;;;5097650;27;45618;-80
2021/09/24 07:23:57;;;;;;;;;15.50;13.00;;;;;;;;5094894;27;45580;-81
2021/09/24 07:26:22;;;;;;;;;15.50;12.75;;;;;;;;5091373;27;46032;-80
2021/09/24 07:28:47;;;;;;;;;12.67;12.67;;;;;;;;5091469;27;45607;-79
2021/09/24 07:31:12;;;;;;;;;16.67;12.67;;;;;;;;5084169;27;45478;-79
2021/09/24 07:33:38;;;;;;;;;14.00;10.33;;;;;;;;5083613;27;45691;-81
2021/09/24 07:36:03;;;;;;;;;12.50;10.50;;;;;;;;5090492;27;46472;-80
2021/09/24 07:38:28;;;;;;;;;13.00;10.50;;;;;;;;5089905;27;45624;-80
2021/09/24 07:40:53;;;;;;;;;16.33;14.33;;;;;;;;5102913;27;45455;-82
2021/09/24 07:43:19;;;;;;;;;12.25;10.25;;;;;;;;5090125;27;45578;-81
2021/09/24 07:45:44;;;;;;;;;14.50;14.00;;;;;;;;5085399;27;48205;-80
2021/09/24 07:48:09;;;;;;;;;18.75;14.00;;;;;;;;5086921;27;45383;-80
2021/09/24 07:50:35;;;;;;;;;16.00;12.67;;;;;;;;5086786;27;45744;-79
2021/09/24 07:53:00;;;;;;;;;15.67;13.33;;;;;;;;5074591;27;45457;-79
2021/09/24 07:55:25;;;;;;;;;19.25;12.75;;;;;;;;5100346;27;46963;-79
2021/09/24 07:57:55;;;;;;;;;14.00;13.33;;;;;;;;5086305;27;45391;-79
2021/09/24 08:00:21;;;;;;;;;13.25;10.75;;;;;;;;5088892;27;45551;-79
2021/09/24 08:02:46;;;;;;;;;15.50;10.25;;;;;;;;5087788;27;45488;-79
2021/09/24 08:05:11;;;;;;;;;18.33;14.33;;;;;;;;5088668;27;45764;-79
2021/09/24 08:07:37;;;;;;;;;13.67;8.00;;;;;;;;5096310;27;45477;-79
2021/09/24 08:10:03;;;;;;;;;9.75;9.00;;;;;;;;5088038;27;45535;-79
2021/09/24 08:12:30;;;;;;;;;13.50;9.50;;;;;;;;5085213;27;45579;-79
2021/09/24 08:14:55;;;;;;;;;12.00;9.00;;;;;;;;5088573;27;46081;-79
2021/09/24 08:17:20;;;;;;;;;10.25;10.00;;;;;;;;5086808;27;45391;-80
2021/09/24 08:19:45;;;;;;;;;7.75;7.75;;;;;;;;5104783;27;45348;-80
2021/09/24 08:22:11;;;;;;;;;7.67;6.00;;;;;;;;5087286;27;45581;-80
2021/09/24 08:24:36;;;;;;;;;10.00;7.67;;;;;;;;5084820;27;46351;-80
2021/09/24 08:27:01;;;;;;;;;7.33;7.00;;;;;;;;5082318;27;45620;-80
2021/09/24 08:29:26;;;;;;;;;9.67;8.33;;;;;;;;5089347;27;52448;-79
2021/09/24 08:31:52;;;;;;;;;9.67;9.00;;;;;;;;5088607;27;45789;-80
2021/09/24 08:34:17;;;;;;;;;12.00;10.50;;;;;;;;5087122;27;46136;-79
2021/09/24 08:36:42;;;;;;;;;12.33;10.00;;;;;;;;5105128;27;46050;-79
2021/09/24 08:39:08;;;;;;;;;8.25;5.50;;;;;;;;5085576;27;45364;-80
2021/09/24 08:41:33;;;;;;;;;11.25;9.00;;;;;;;;5084940;27;45667;-79
2021/09/24 08:43:58;;;;;;;;;8.75;6.50;;;;;;;;5080830;27;45559;-79
2021/09/24 08:46:24;;;;;;;;;9.50;9.50;;;;;;;;5091405;27;45472;-79
2021/09/24 08:48:50;;;;;;;;;7.75;6.25;;;;;;;;5078364;27;45537;-79
2021/09/24 08:51:16;;;;;;;;;10.25;7.75;;;;;;;;5080747;27;45975;-79
2021/09/24 08:53:41;;;;;;;;;12.75;7.00;;;;;;;;5090552;27;46392;-79
2021/09/24 08:56:07;;;;;;;;;11.00;7.50;;;;;;;;5079769;27;45552;-79
2021/09/24 08:58:34;;;;;;;;;9.00;7.00;;;;;;;;5087302;27;45524;-79
2021/09/24 09:00:59;;;;;;;;;8.25;6.00;;;;;;;;5076484;27;47914;-79
2021/09/24 09:03:35;;;;;;;;;9.75;6.25;;;;;;;;5099192;27;47838;-79
2021/09/24 09:06:03;;;;;;;;;8.00;8.00;;;;;;;;5099390;27;45460;-79
2021/09/24 09:08:30;;;;;;;;;7.25;6.25;;;;;;;;5088988;27;45628;-79
2021/09/24 09:11:25;;;;;;;;;8.50;6.00;;;;;;;;5089990;27;45395;-79
2021/09/24 09:13:59;;;;;;;;;6.00;6.00;;;;;;;;5074714;27;47272;-79
2021/09/24 09:16:29;;;;;;;;;6.50;5.75;;;;;;;;5083875;27;45518;-79
2021/09/24 09:19:07;;;;;;;;;9.50;7.75;;;;;;;;5082835;27;45511;-79
2021/09/24 09:21:33;;;;;;;;;8.00;8.00;;;;;;;;5082362;27;45695;-79
2021/09/24 09:23:58;;;;;;;;;10.50;6.75;;;;;;;;5086578;27;46330;-79
2021/09/24 09:26:26;;;;;;;;;7.67;6.00;;;;;;;;5089591;27;45462;-79
2021/09/24 09:28:55;;;;;;;;;10.25;7.25;;;;;;;;5086695;27;45594;-80
2021/09/24 09:31:29;;;;;;;;;6.00;4.25;;;;;;;;5086305;27;45485;-83
2021/09/24 09:33:58;;;;;;;;;11.50;8.00;;;;;;;;5084059;27;45660;-79
2021/09/24 09:36:28;;;;;;;;;8.75;8.00;;;;;;;;5085752;27;45754;-79
2021/09/24 09:38:53;;;;;;;;;6.50;6.50;;;;;;;;5079745;27;45844;-79
2021/09/24 09:41:21;;;;;;;;;10.00;8.00;;;;;;;;5084307;27;45414;-79
2021/09/24 09:43:53;;;;;;;;;7.50;7.25;;;;;;;;5087929;27;45455;-79
2021/09/24 09:46:19;;;;;;;;;13.50;10.75;;;;;;;;5084672;27;45866;-79
2021/09/24 09:49:01;;;;;;;;;13.33;10.00;;;;;;;;5074948;27;45679;-72
2021/09/24 09:51:27;;;;;;;;;11.00;9.25;;;;;;;;5082007;27;45699;-80
2021/09/24 09:53:52;;;;;;;;;10.00;8.25;;;;;;;;5085370;27;47412;-79
2021/09/24 09:56:18;;;;;;;;;11.00;9.00;;;;;;;;5086786;27;45571;-79
2021/09/24 09:58:44;;;;;;;;;9.75;8.00;;;;;;;;5090490;27;45473;-80
2021/09/24 10:01:11;;;;;;;;;9.00;7.25;;;;;;;;5086393;27;45536;-79
2021/09/24 10:03:36;;;;;;;;;7.50;6.25;;;;;;;;5084363;27;46185;-79
2021/09/24 10:06:03;;;;;;;;;14.00;10.33;;;;;;;;5093283;27;45425;-79
2021/09/24 10:08:33;;;;;;;;;14.75;9.75;;;;;;;;5085318;27;45674;-80
2021/09/24 10:11:11;;;;;;;;;9.25;6.25;;;;;;;;5100066;27;45384;-79
2021/09/24 10:13:48;;;;;;;;;10.25;9.00;;;;;;;;5101742;27;46730;-80
2021/09/24 10:16:13;;;;;;;;;8.75;7.00;;;;;;;;5091123;27;45701;-79
2021/09/24 10:18:38;;;;;;;;;10.50;6.75;;;;;;;;5083998;27;45429;-80
2021/09/24 10:21:04;;;;;;;;;7.25;7.00;;;;;;;;5087775;27;45464;-79
2021/09/24 10:23:29;;;;;;;;;7.75;6.00;;;;;;;;5090256;27;48736;-80
2021/09/24 10:25:55;;;;;;;;;6.00;6.00;;;;;;;;5090009;27;45359;-80
2021/09/24 10:28:26;;;;;;;;;12.25;10.50;;;;;;;;5105051;27;45611;-79
2021/09/24 10:30:52;;;;;;;;;6.75;6.75;;;;;;;;5085036;27;45689;-79
2021/09/24 10:33:18;;;;;;;;;9.00;8.50;;;;;;;;5090176;27;46563;-79
2021/09/24 10:35:46;;;;;;;;;15.75;14.00;;;;;;;;5087848;27;46097;-79
2021/09/24 10:38:11;;;;;;;;;23.75;22.00;;;;;;;;5091214;27;45784;-79
2021/09/24 10:40:50;;;;;;;;;17.33;14.67;;;;;;;;5091101;27;45622;-80
2021/09/24 10:43:15;;;;;;;;;50.50;37.25;;;;;;;;5090869;27;46271;-80
2021/09/24 10:45:42;;;;;;;;;9.67;4.67;;;;;;;;5087936;27;45637;-80
2021/09/24 10:48:07;;;;;;;;;22.25;15.75;;;;;;;;5089403;27;45458;-80
2021/09/24 10:50:33;;;;;;;;;26.33;18.00;;;;;;;;5106535;27;45564;-80
2021/09/24 10:53:08;;;;;;;;;15.75;14.75;;;;;;;;5087732;27;45650;-80
2021/09/24 10:55:38;;;;;;;;;30.25;28.50;;;;;;;;5103572;27;45666;-80
2021/09/24 10:58:03;;;;;;;;;13.75;10.75;;;;;;;;5086561;27;45538;-80
2021/09/24 11:00:30;;;;;;;;;48.00;38.75;;;;;;;;5100934;27;45562;-80
2021/09/24 11:03:11;;;;;;;;;10.50;9.00;;;;;;;;5091462;27;45445;-80
2021/09/24 11:05:56;;;;;;;;;8.50;8.00;;;;;;;;5085487;27;45666;-80
2021/09/24 11:08:37;;;;;;;;;8.50;7.25;;;;;;;;5087323;27;49776;-80
2021/09/24 11:11:05;;;;;;;;;26.25;18.50;;;;;;;;5081748;27;45439;-83
2021/09/24 11:13:31;;;;;;;;;7.00;7.00;;;;;;;;5084265;27;48276;-83
2021/09/24 11:16:00;;;;;;;;;19.75;17.75;;;;;;;;5086274;27;45852;-83
2021/09/24 11:18:45;;;;;;;;;15.25;10.75;;;;;;;;5102417;27;45596;-84
2021/09/24 11:21:10;;;;;;;;;8.75;6.75;;;;;;;;5100952;27;45698;-84
2021/09/24 11:23:37;;;;;;;;;9.25;9.25;;;;;;;;5095232;27;48181;-84
2021/09/24 11:26:09;;;;;;;;;8.00;7.75;;;;;;;;5087137;27;45801;-83
2021/09/24 11:28:34;;;;;;;;;10.25;10.25;;;;;;;;5092232;27;45760;-84
2021/09/24 11:31:00;;;;;;;;;20.33;20.33;;;;;;;;5087134;27;45596;-85
2021/09/24 11:33:37;;;;;;;;;11.67;11.67;;;;;;;;5082472;27;47234;-85
2021/09/24 11:36:02;;;;;;;;;8.00;8.00;;;;;;;;5081485;27;45887;-84
2021/09/24 11:38:29;;;;;;;;;9.00;7.75;;;;;;;;5080549;27;45529;-85
2021/09/24 11:40:56;;;;;;;;;13.50;10.00;;;;;;;;5088932;27;45467;-85
2021/09/24 11:43:23;;;;;;;;;8.00;7.75;;;;;;;;5091188;27;48131;-84
2021/09/24 11:45:48;;;;;;;;;12.50;8.50;;;;;;;;5076172;27;45679;-85
2021/09/24 11:48:13;;;;;;;;;10.25;8.50;;;;;;;;5086163;27;46024;-85
2021/09/24 11:50:39;;;;;;;;;12.67;12.67;;;;;;;;5089930;27;45622;-84
2021/09/24 11:53:09;;;;;;;;;7.00;7.00;;;;;;;;5073917;27;46640;-85
2021/09/24 11:55:35;;;;;;;;;13.00;10.50;;;;;;;;5094564;27;45491;-85
2021/09/24 11:58:08;;;;;;;;;17.00;15.25;;;;;;;;5087941;27;45400;-85
2021/09/24 12:00:46;;;;;;;;;9.50;8.00;;;;;;;;5088872;27;45572;-85
2021/09/24 12:03:20;;;;;;;;;13.75;11.00;;;;;;;;5103178;27;48390;-84
2021/09/24 12:05:49;;;;;;;;;9.75;8.50;;;;;;;;5087496;27;45976;-85
2021/09/24 12:08:16;;;;;;;;;9.00;8.00;;;;;;;;5085928;27;45511;-84
2021/09/24 12:10:41;;;;;;;;;9.00;8.50;;;;;;;;5105105;27;45650;-84
2021/09/24 12:13:11;;;;;;;;;7.50;6.75;;;;;;;;5083339;27;45572;-85
2021/09/24 12:15:56;;;;;;;;;8.00;6.00;;;;;;;;5099001;27;45564;-85
2021/09/24 12:18:41;;;;;;;;;8.00;6.75;;;;;;;;5089594;27;45617;-85
2021/09/24 12:21:06;;;;;;;;;8.00;8.00;;;;;;;;5085091;27;45651;-85
2021/09/24 12:23:32;;;;;;;;;9.00;8.25;;;;;;;;5088805;27;46646;-85
2021/09/24 12:25:59;;;;;;;;;7.00;6.00;;;;;;;;5088864;27;46164;-85
2021/09/24 12:28:24;;;;;;;;;8.75;7.50;;;;;;;;5101047;27;45551;-85
2021/09/24 12:30:49;;;;;;;;;7.75;7.00;;;;;;;;5074058;27;45709;-85
2021/09/24 12:33:15;;;;;;;;;9.00;8.00;;;;;;;;5087706;27;47006;-85
2021/09/24 12:35:40;;;;;;;;;9.50;5.75;;;;;;;;5089526;27;45400;-84
2021/09/24 12:38:22;;;;;;;;;8.75;7.50;;;;;;;;5074484;27;45735;-86
2021/09/24 12:40:47;;;;;;;;;8.00;7.00;;;;;;;;5092920;27;45688;-85
2021/09/24 12:43:13;;;;;;;;;8.33;8.33;;;;;;;;5078421;27;46438;-85
2021/09/24 12:45:38;;;;;;;;;6.00;6.00;;;;;;;;5076004;27;45612;-85
2021/09/24 12:48:14;;;;;;;;;8.00;6.00;;;;;;;;5081217;27;45500;-86
2021/09/24 12:50:39;;;;;;;;;5.00;5.00;;;;;;;;5086881;27;45669;-85
2021/09/24 12:53:05;;;;;;;;;8.25;7.00;;;;;;;;5086647;27;46105;-86
2021/09/24 12:55:30;;;;;;;;;8.25;8.25;;;;;;;;5073866;27;46081;-86
2021/09/24 12:57:55;;;;;;;;;5.75;5.75;;;;;;;;5067785;27;45802;-86
2021/09/24 13:00:22;;;;;;;;;6.67;6.67;;;;;;;;5076803;27;45532;-84
2021/09/24 13:02:47;;;;;;;;;6.00;5.50;;;;;;;;5079101;27;45526;-85
2021/09/24 13:05:14;;;;;;;;;6.67;5.67;;;;;;;;5090066;27;45667;-85
2021/09/24 13:07:43;;;;;;;;;9.00;8.00;;;;;;;;5083171;27;45383;-86
2021/09/24 13:10:08;;;;;;;;;7.25;6.75;;;;;;;;5082000;27;45537;-85
2021/09/24 13:12:35;;;;;;;;;7.75;5.75;;;;;;;;5085697;27;47498;-85
2021/09/24 13:15:00;;;;;;;;;5.25;5.25;;;;;;;;5087831;27;45800;-85
2021/09/24 13:17:26;;;;;;;;;5.50;5.50;;;;;;;;5103844;27;45646;-85
2021/09/24 13:19:51;;;;;;;;;8.00;7.00;;;;;;;;5090953;27;45309;-85
2021/09/24 13:22:17;;;;;;;;;8.25;7.25;;;;;;;;5082536;27;45417;-85
2021/09/24 13:24:42;;;;;;;;;5.00;5.00;;;;;;;;5082124;27;45448;-85
2021/09/24 13:27:07;;;;;;;;;8.67;6.33;;;;;;;;5084522;27;45793;-86
2021/09/24 13:29:32;;;;;;;;;4.25;4.25;;;;;;;;5084601;27;45971;-85
2021/09/24 13:31:58;;;;;;;;;6.00;6.00;;;;;;;;5084494;27;46060;-86
2021/09/24 13:34:23;;;;;;;;;7.33;6.00;;;;;;;;5085341;27;45469;-87
2021/09/24 13:36:48;;;;;;;;;7.75;7.00;;;;;;;;5084641;27;45421;-86
2021/09/24 13:39:14;;;;;;;;;6.50;5.00;;;;;;;;5087770;27;45412;-85
2021/09/24 13:41:39;;;;;;;;;8.25;7.25;;;;;;;;5086444;27;48289;-85
2021/09/24 13:44:04;;;;;;;;;6.25;5.75;;;;;;;;5102869;27;45544;-86
2021/09/24 13:46:30;;;;;;;;;7.33;6.67;;;;;;;;5085219;27;45431;-86
2021/09/24 13:48:55;;;;;;;;;8.75;8.00;;;;;;;;5080306;27;45581;-86
2021/09/24 13:51:20;;;;;;;;;8.67;7.33;;;;;;;;5086057;27;47031;-86
2021/09/24 13:53:46;;;;;;;;;7.50;7.50;;;;;;;;5087151;27;45649;-85
2021/09/24 13:56:13;;;;;;;;;9.00;9.00;;;;;;;;5090543;27;45486;-86
2021/09/24 13:58:38;;;;;;;;;8.50;8.25;;;;;;;;5103269;27;45572;-85
2021/09/24 14:01:04;;;;;;;;;7.25;7.25;;;;;;;;5090428;27;45509;-85
2021/09/24 14:03:29;;;;;;;;;7.25;6.00;;;;;;;;5087338;27;45504;-86
2021/09/24 14:05:54;;;;;;;;;9.75;8.00;;;;;;;;5087951;27;46013;-85
2021/09/24 14:08:20;;;;;;;;;7.75;7.00;;;;;;;;5090766;27;45443;-85
2021/09/24 14:10:45;;;;;;;;;7.25;5.75;;;;;;;;5090005;27;45922;-86
2021/09/24 14:13:10;;;;;;;;;7.50;5.50;;;;;;;;5086050;27;45496;-86
2021/09/24 14:15:36;;;;;;;;;6.00;6.00;;;;;;;;5087999;27;45478;-84
2021/09/24 14:18:02;;;;;;;;;6.25;6.25;;;;;;;;5089863;27;45419;-85
2021/09/24 14:20:27;;;;;;;;;7.25;5.00;;;;;;;;5086617;27;46414;-81
2021/09/24 14:22:52;;;;;;;;;5.50;5.50;;;;;;;;5088795;27;45527;-85
2021/09/24 14:25:18;;;;;;;;;6.25;6.25;;;;;;;;5087013;27;45480;-85